createdAt,value
2018-03-07T00:01:42.742Z,39.10
2018-03-07T00:04:10.998Z,37.07
2018-03-07T00:06:40.124Z,37.77
2018-03-07T00:09:08.371Z,37.60
2018-03-07T00:11:37.403Z,36.00
2018-03-07T00:14:05.658Z,34.50
2018-03-07T00:16:33.926Z,36.30
2018-03-07T00:19:02.988Z,34.20
2018-03-07T00:21:31.350Z,35.60
2018-03-07T00:23:59.601Z,34.30
2018-03-07T00:26:27.910Z,32.57
2018-03-07T00:28:56.186Z,32.77
2018-03-07T00:31:24.469Z,32.60
2018-03-07T00:36:28.412Z,33.30
2018-03-07T00:38:56.673Z,32.47
2018-03-07T00:41:24.913Z,31.77
2018-03-07T00:43:53.973Z,32.03
2018-03-07T00:46:22.296Z,31.50
2018-03-07T00:48:50.581Z,31.70
2018-03-07T00:51:19.712Z,31.87
2018-03-07T00:53:47.974Z,30.90
2018-03-07T00:56:17.009Z,29.70
2018-03-07T00:58:45.269Z,31.20
2018-03-07T01:01:13.510Z,33.23
2018-03-07T01:03:41.773Z,32.83
2018-03-07T01:06:10.032Z,31.50
2018-03-07T01:08:38.286Z,32.37
2018-03-07T01:11:06.553Z,31.50
2018-03-07T01:13:35.575Z,31.20
2018-03-07T01:16:03.870Z,30.63
2018-03-07T01:18:32.149Z,30.13
2018-03-07T01:21:00.403Z,32.10
2018-03-07T01:23:29.419Z,31.83
2018-03-07T01:25:57.681Z,31.10
2018-03-07T01:28:25.945Z,31.87
2018-03-07T01:30:54.999Z,29.80
2018-03-07T01:33:23.264Z,31.33
2018-03-07T01:35:51.526Z,32.60
2018-03-07T01:38:19.793Z,30.40
2018-03-07T01:40:48.361Z,31.37
2018-03-07T01:43:17.373Z,33.33
2018-03-07T01:45:45.639Z,33.57
2018-03-07T01:48:14.656Z,31.87
2018-03-07T01:50:43.704Z,33.07
2018-03-07T01:53:11.949Z,32.03
2018-03-07T01:55:40.220Z,35.87
2018-03-07T01:58:08.489Z,36.83
2018-03-07T02:00:37.522Z,35.50
2018-03-07T02:03:05.767Z,32.90
2018-03-07T02:05:34.785Z,35.60
2018-03-07T02:08:03.054Z,32.63
2018-03-07T02:10:33.227Z,32.90
2018-03-07T02:13:01.512Z,33.60
2018-03-07T02:15:29.769Z,34.60
2018-03-07T02:17:58.021Z,33.97
2018-03-07T02:20:26.329Z,32.33
2018-03-07T02:22:54.599Z,32.00
2018-03-07T02:25:22.946Z,30.87
2018-03-07T02:27:51.975Z,31.90
2018-03-07T02:30:20.264Z,32.57
2018-03-07T02:32:48.534Z,30.47
2018-03-07T02:35:16.778Z,29.67
2018-03-07T02:37:45.111Z,30.60
2018-03-07T02:40:13.375Z,29.27
2018-03-07T02:42:41.641Z,30.20
2018-03-07T02:45:10.654Z,28.30
2018-03-07T02:47:38.966Z,28.37
2018-03-07T02:50:07.217Z,28.00
2018-03-07T02:52:35.519Z,28.80
2018-03-07T02:55:03.774Z,27.47
2018-03-07T02:57:32.041Z,25.80
2018-03-07T03:00:01.060Z,26.77
2018-03-07T03:02:29.321Z,23.83
2018-03-07T03:04:57.577Z,23.80
2018-03-07T03:07:25.833Z,25.03
2018-03-07T03:09:54.986Z,23.23
2018-03-07T03:12:23.288Z,23.20
2018-03-07T03:14:51.526Z,22.63
2018-03-07T03:17:20.569Z,22.70
2018-03-07T03:19:48.832Z,23.37
2018-03-07T03:22:17.083Z,21.37
2018-03-07T03:24:46.111Z,23.03
2018-03-07T03:27:14.409Z,22.90
2018-03-07T03:29:42.675Z,23.50
2018-03-07T03:32:10.922Z,21.70
2018-03-07T03:34:39.946Z,21.13
2018-03-07T03:37:08.197Z,24.63
2018-03-07T03:39:37.231Z,23.60
2018-03-07T03:42:05.486Z,22.73
2018-03-07T03:44:34.553Z,25.07
2018-03-07T03:47:02.802Z,22.70
2018-03-07T03:49:31.063Z,23.00
2018-03-07T03:51:59.330Z,22.50
2018-03-07T03:54:28.344Z,22.97
2018-03-07T03:56:56.741Z,24.50
2018-03-07T03:59:25.009Z,21.20
2018-03-07T04:01:53.262Z,22.50
2018-03-07T04:04:22.300Z,23.00
2018-03-07T04:06:50.548Z,25.93
2018-03-07T04:09:19.575Z,22.57
2018-03-07T04:11:47.834Z,21.90
2018-03-07T04:14:16.096Z,22.57
2018-03-07T04:16:45.129Z,22.80
2018-03-07T04:19:13.413Z,24.70
2018-03-07T04:21:41.693Z,22.97
2018-03-07T04:24:09.939Z,23.07
2018-03-07T04:26:39.009Z,21.70
2018-03-07T04:29:07.241Z,22.50
2018-03-07T04:31:35.530Z,22.17
2018-03-07T04:34:03.812Z,23.00
2018-03-07T04:36:32.084Z,22.00
2018-03-07T04:39:00.345Z,22.37
2018-03-07T04:41:29.350Z,21.10
2018-03-07T04:43:57.622Z,23.00
2018-03-07T04:46:25.941Z,21.43
2018-03-07T04:48:54.298Z,23.13
2018-03-07T04:51:22.596Z,23.13
2018-03-07T04:53:51.600Z,20.93
2018-03-07T04:56:19.850Z,21.47
2018-03-07T04:58:48.178Z,20.53
2018-03-07T05:01:16.557Z,23.73
2018-03-07T05:03:44.820Z,21.97
2018-03-07T05:06:13.064Z,21.30
2018-03-07T05:08:42.132Z,21.30
2018-03-07T05:11:10.369Z,20.60
2018-03-07T05:13:38.801Z,20.67
2018-03-07T05:16:07.082Z,21.40
2018-03-07T05:18:35.330Z,21.37
2018-03-07T05:21:03.642Z,21.07
2018-03-07T05:23:31.874Z,21.87
2018-03-07T05:26:00.136Z,21.90
2018-03-07T05:28:28.767Z,22.23
2018-03-07T05:30:57.027Z,22.40
2018-03-07T05:33:25.278Z,22.20
2018-03-07T05:35:53.541Z,23.50
2018-03-07T05:38:21.904Z,22.73
2018-03-07T05:40:50.167Z,23.37
2018-03-07T05:43:18.410Z,22.73
2018-03-07T05:45:46.678Z,23.27
2018-03-07T05:48:15.720Z,21.73
2018-03-07T05:50:43.963Z,21.63
2018-03-07T05:53:12.997Z,23.27
2018-03-07T05:55:41.241Z,23.00
2018-03-07T05:58:10.274Z,22.07
2018-03-07T06:00:38.512Z,22.60
2018-03-07T06:03:07.660Z,23.30
2018-03-07T06:05:35.911Z,24.90
2018-03-07T06:08:04.182Z,24.47
2018-03-07T06:10:32.439Z,22.37
2018-03-07T06:13:01.497Z,24.17
2018-03-07T06:15:29.742Z,24.27
2018-03-07T06:17:58.001Z,25.17
2018-03-07T06:20:27.041Z,23.80
2018-03-07T06:22:56.034Z,23.10
2018-03-07T06:25:24.319Z,24.47
2018-03-07T06:27:52.582Z,24.53
2018-03-07T06:30:21.582Z,22.63
2018-03-07T06:32:49.861Z,23.80
2018-03-07T06:35:18.889Z,22.40
2018-03-07T06:37:47.151Z,21.20
2018-03-07T06:40:15.394Z,20.00
2018-03-07T06:42:43.695Z,20.77
2018-03-07T06:45:11.941Z,19.53
2018-03-07T06:47:40.210Z,20.40
2018-03-07T06:50:08.541Z,18.97
2018-03-07T06:52:37.582Z,21.70
2018-03-07T06:55:05.829Z,19.47
2018-03-07T06:57:34.113Z,19.27
2018-03-07T07:00:02.428Z,18.00
2018-03-07T07:02:30.687Z,18.57
2018-03-07T07:04:58.958Z,19.37
2018-03-07T07:07:27.245Z,16.60
2018-03-07T07:09:55.526Z,17.83
2018-03-07T07:12:23.770Z,19.80
2018-03-07T07:14:52.803Z,20.63
2018-03-07T07:17:21.052Z,19.13
2018-03-07T07:19:50.074Z,18.83
2018-03-07T07:22:18.370Z,19.37
2018-03-07T07:24:46.708Z,19.83
2018-03-07T07:27:15.726Z,18.83
2018-03-07T07:29:43.989Z,20.30
2018-03-07T07:32:12.489Z,19.87
2018-03-07T07:34:40.761Z,18.43
2018-03-07T07:37:09.020Z,18.67
2018-03-07T07:39:38.074Z,18.87
2018-03-07T07:42:06.354Z,19.03
2018-03-07T07:44:34.624Z,19.50
2018-03-07T07:47:02.903Z,20.80
2018-03-07T07:49:31.163Z,18.73
2018-03-07T07:51:59.406Z,18.30
2018-03-07T07:54:28.496Z,21.03
2018-03-07T07:56:56.731Z,19.67
2018-03-07T07:59:24.998Z,20.40
2018-03-07T08:01:53.238Z,21.63
2018-03-07T08:04:21.552Z,19.63
2018-03-07T08:06:50.555Z,22.20
2018-03-07T08:09:18.820Z,21.03
2018-03-07T08:11:47.832Z,20.93
2018-03-07T08:14:16.099Z,22.87
2018-03-07T08:16:45.109Z,22.07
2018-03-07T08:19:13.418Z,22.03
2018-03-07T08:21:41.680Z,21.10
2018-03-07T08:24:09.936Z,21.20
2018-03-07T08:26:39.012Z,19.70
2018-03-07T08:29:07.275Z,20.37
2018-03-07T08:31:35.534Z,19.30
2018-03-07T08:34:03.805Z,19.03
2018-03-07T08:36:32.069Z,19.70
2018-03-07T08:39:00.908Z,18.80
2018-03-07T08:41:29.949Z,18.70
2018-03-07T08:43:58.982Z,19.87
2018-03-07T08:46:27.228Z,19.60
2018-03-07T08:48:56.284Z,19.50
2018-03-07T08:51:24.544Z,19.47
2018-03-07T08:53:52.822Z,21.63
2018-03-07T08:56:21.074Z,21.30
2018-03-07T08:58:49.334Z,21.60
2018-03-07T09:01:18.366Z,20.87
2018-03-07T09:03:46.687Z,21.87
2018-03-07T09:06:14.930Z,21.40
2018-03-07T09:08:43.193Z,22.03
2018-03-07T09:11:11.446Z,22.70
2018-03-07T09:13:40.677Z,22.93
2018-03-07T09:16:09.705Z,22.90
2018-03-07T09:18:37.967Z,21.77
2018-03-07T09:21:06.268Z,23.00
2018-03-07T09:23:34.593Z,22.40
2018-03-07T09:26:02.986Z,22.20
2018-03-07T09:28:32.015Z,21.97
2018-03-07T09:33:28.149Z,21.67
2018-03-07T09:35:56.457Z,19.60
2018-03-07T09:38:24.708Z,22.73
2018-03-07T09:40:53.010Z,19.33
2018-03-07T09:43:21.305Z,23.93
2018-03-07T09:45:49.566Z,21.40
2018-03-07T09:48:17.836Z,19.43
2018-03-07T09:50:46.994Z,21.33
2018-03-07T09:53:15.238Z,18.93
2018-03-07T09:55:44.609Z,20.27
2018-03-07T09:58:13.165Z,16.93
2018-03-07T10:00:42.525Z,17.30
2018-03-07T10:03:11.496Z,16.90
2018-03-07T10:05:41.145Z,17.73
2018-03-07T10:08:10.905Z,16.53
2018-03-07T10:10:39.217Z,16.70
2018-03-07T10:13:07.529Z,15.20
2018-03-07T10:15:35.794Z,16.07
2018-03-07T10:18:04.038Z,18.10
2018-03-07T10:20:33.071Z,16.87
2018-03-07T10:23:01.327Z,15.27
2018-03-07T10:25:30.370Z,16.60
2018-03-07T10:27:58.622Z,16.47
2018-03-07T10:30:26.934Z,14.93
2018-03-07T10:32:55.177Z,14.67
2018-03-07T10:35:23.437Z,15.60
2018-03-07T10:37:52.473Z,14.30
2018-03-07T10:40:20.737Z,15.33
2018-03-07T10:42:48.982Z,16.03
2018-03-07T10:45:17.328Z,14.97
2018-03-07T10:47:45.580Z,14.60
2018-03-07T10:50:14.558Z,14.30
2018-03-07T10:52:43.580Z,14.47
2018-03-07T10:55:11.848Z,12.23
2018-03-07T10:57:40.896Z,12.33
2018-03-07T11:00:10.471Z,13.03
2018-03-07T11:02:40.349Z,12.80
2018-03-07T11:05:09.083Z,13.00
2018-03-07T11:07:37.435Z,11.97
2018-03-07T11:10:05.930Z,12.47
2018-03-07T11:12:34.497Z,12.23
2018-03-07T11:15:02.830Z,11.93
2018-03-07T11:17:31.082Z,10.80
2018-03-07T11:20:00.128Z,9.20
2018-03-07T11:22:28.362Z,9.40
2018-03-07T11:24:57.394Z,8.43
2018-03-07T11:27:25.722Z,10.37
2018-03-07T11:29:54.781Z,10.40
2018-03-07T11:32:23.043Z,11.10
2018-03-07T11:34:51.303Z,6.80
2018-03-07T11:37:20.319Z,6.90
2018-03-07T11:39:48.766Z,6.27
2018-03-07T11:42:17.076Z,7.57
2018-03-07T11:44:46.221Z,7.80
2018-03-07T11:47:15.753Z,7.20
2018-03-07T11:49:44.051Z,8.00
2018-03-07T11:52:13.336Z,8.23
2018-03-07T11:54:41.671Z,8.23
2018-03-07T11:57:11.335Z,7.97
2018-03-07T11:59:40.344Z,7.83
2018-03-07T12:02:08.577Z,7.77
2018-03-07T12:04:36.832Z,9.33
2018-03-07T12:07:05.078Z,8.53
2018-03-07T12:09:34.848Z,8.17
2018-03-07T12:12:03.264Z,8.13
2018-03-07T12:14:31.533Z,8.87
2018-03-07T12:16:59.788Z,9.70
2018-03-07T12:19:28.048Z,8.27
2018-03-07T12:21:56.290Z,8.20
2018-03-07T12:24:24.558Z,8.93
2018-03-07T12:26:52.802Z,8.10
2018-03-07T12:29:21.050Z,7.60
2018-03-07T12:31:50.058Z,9.33
2018-03-07T12:34:19.087Z,7.37
2018-03-07T12:36:47.318Z,8.57
2018-03-07T12:39:16.344Z,8.80
2018-03-07T12:41:44.640Z,7.33
2018-03-07T12:44:12.833Z,6.47
2018-03-07T12:46:41.084Z,5.77
2018-03-07T12:49:09.418Z,6.27
2018-03-07T12:51:37.639Z,4.70
2018-03-07T12:54:05.957Z,4.90
2018-03-07T12:56:34.185Z,4.67
2018-03-07T12:59:03.227Z,3.17
2018-03-07T13:01:31.476Z,3.30
2018-03-07T13:03:59.721Z,3.30
2018-03-07T13:06:28.064Z,2.97
2018-03-07T13:08:56.312Z,2.80
2018-03-07T13:11:25.334Z,2.93
2018-03-07T13:13:54.442Z,2.70
2018-03-07T13:16:22.729Z,2.57
2018-03-07T13:18:50.937Z,2.37
2018-03-07T13:21:19.198Z,2.30
2018-03-07T13:23:47.502Z,2.30
2018-03-07T13:26:15.750Z,2.00
2018-03-07T13:28:43.998Z,2.17
2018-03-07T13:31:12.254Z,2.03
2018-03-07T13:33:40.499Z,1.70
2018-03-07T13:36:08.754Z,1.80
2018-03-07T13:38:36.985Z,1.90
2018-03-07T13:41:05.242Z,2.00
2018-03-07T13:43:33.489Z,2.60
2018-03-07T13:46:01.798Z,1.87
2018-03-07T13:48:30.062Z,2.00
2018-03-07T13:50:58.313Z,1.80
2018-03-07T13:53:26.564Z,2.00
2018-03-07T13:55:54.814Z,2.67
2018-03-07T13:58:23.121Z,2.63
2018-03-07T14:00:51.351Z,2.10
2018-03-07T14:03:19.652Z,1.93
2018-03-07T14:05:47.910Z,2.07
2018-03-07T14:08:16.154Z,2.13
2018-03-07T14:10:45.198Z,3.80
2018-03-07T14:13:13.447Z,2.87
2018-03-07T14:15:42.512Z,2.00
2018-03-07T14:18:10.798Z,1.80
2018-03-07T14:20:40.590Z,2.10
2018-03-07T14:23:08.895Z,2.30
2018-03-07T14:25:37.169Z,1.70
2018-03-07T14:28:05.562Z,1.90
2018-03-07T14:30:33.842Z,2.33
2018-03-07T14:33:02.206Z,2.20
2018-03-07T14:35:30.465Z,1.80
2018-03-07T14:37:58.710Z,1.80
2018-03-07T14:40:27.726Z,1.80
2018-03-07T14:42:55.971Z,1.50
2018-03-07T14:45:24.994Z,1.50
2018-03-07T14:47:53.298Z,1.63
2018-03-07T14:50:21.561Z,1.90
2018-03-07T14:52:49.800Z,1.67
2018-03-07T14:55:18.138Z,2.03
2018-03-07T14:57:46.426Z,2.30
2018-03-07T15:00:14.743Z,2.90
2018-03-07T15:02:42.995Z,2.50
2018-03-07T15:05:11.251Z,2.50
2018-03-07T15:07:39.526Z,2.10
2018-03-07T15:10:07.755Z,1.70
2018-03-07T15:12:36.011Z,2.00
2018-03-07T15:15:04.273Z,1.60
2018-03-07T15:17:32.527Z,2.17
2018-03-07T15:20:10.158Z,2.10
2018-03-07T15:22:38.418Z,2.30
2018-03-07T15:25:06.677Z,1.80
2018-03-07T15:27:35.719Z,2.17
2018-03-07T15:30:03.965Z,2.03
2018-03-07T15:32:32.278Z,1.97
2018-03-07T15:35:00.600Z,1.67
2018-03-07T15:37:28.813Z,1.37
2018-03-07T15:39:57.097Z,1.63
2018-03-07T15:42:26.097Z,0.97
2018-03-07T15:44:54.403Z,1.80
2018-03-07T15:47:22.663Z,1.70
2018-03-07T15:49:50.913Z,1.50
2018-03-07T15:52:19.921Z,1.93
2018-03-07T15:54:48.941Z,1.67
2018-03-07T15:57:17.194Z,1.70
2018-03-07T15:59:46.211Z,1.70
2018-03-07T16:02:15.231Z,2.17
2018-03-07T16:04:43.467Z,1.73
2018-03-07T16:07:11.715Z,1.70
2018-03-07T16:09:39.956Z,1.73
2018-03-07T16:12:08.251Z,1.63
2018-03-07T16:14:36.501Z,1.63
2018-03-07T16:17:05.670Z,2.37
2018-03-07T16:19:34.606Z,1.90
2018-03-07T16:22:03.624Z,1.40
2018-03-07T16:24:31.862Z,1.60
2018-03-07T16:27:00.109Z,1.83
2018-03-07T16:29:28.358Z,1.50
2018-03-07T16:31:56.613Z,1.40
2018-03-07T16:34:25.617Z,1.53
2018-03-07T16:36:54.634Z,1.37
2018-03-07T16:39:22.890Z,1.57
2018-03-07T16:41:51.934Z,1.33
2018-03-07T16:44:20.165Z,1.53
2018-03-07T16:46:49.205Z,1.93
2018-03-07T16:49:17.490Z,1.87
2018-03-07T16:51:45.771Z,1.97
2018-03-07T16:54:14.001Z,2.47
2018-03-07T16:56:43.017Z,1.90
2018-03-07T16:59:11.262Z,1.73
2018-03-07T17:01:41.698Z,1.97
2018-03-07T17:04:10.485Z,2.40
2018-03-07T17:06:38.782Z,2.10
2018-03-07T17:09:07.805Z,2.27
2018-03-07T17:11:36.057Z,2.23
2018-03-07T17:14:05.135Z,3.00
2018-03-07T17:16:34.327Z,3.00
2018-03-07T17:19:02.624Z,3.00
2018-03-07T17:21:31.005Z,2.87
2018-03-07T17:23:59.262Z,3.47
2018-03-07T17:26:27.518Z,3.53
2018-03-07T17:28:57.661Z,3.37
2018-03-07T17:31:26.727Z,3.10
2018-03-07T17:33:55.733Z,3.60
2018-03-07T17:36:24.017Z,2.83
2018-03-07T17:38:52.262Z,3.87
2018-03-07T17:41:20.514Z,4.10
2018-03-07T17:43:48.754Z,3.23
2018-03-07T17:46:17.029Z,3.73
2018-03-07T17:48:45.323Z,3.27
2018-03-07T17:51:13.576Z,4.30
2018-03-07T17:53:42.578Z,3.77
2018-03-07T17:56:10.858Z,3.93
2018-03-07T17:58:39.079Z,3.50
2018-03-07T18:01:07.326Z,3.80
2018-03-07T18:03:35.573Z,3.97
2018-03-07T18:06:03.857Z,4.07
2018-03-07T18:08:32.182Z,3.80
2018-03-07T18:11:00.460Z,4.00
2018-03-07T18:13:28.736Z,3.57
2018-03-07T18:15:57.705Z,3.60
2018-03-07T18:18:26.743Z,3.53
2018-03-07T18:20:54.978Z,4.33
2018-03-07T18:23:23.998Z,3.30
2018-03-07T18:25:53.005Z,3.80
2018-03-07T18:28:21.331Z,3.87
2018-03-07T18:30:49.547Z,3.67
2018-03-07T18:33:17.802Z,4.13
2018-03-07T18:35:46.837Z,3.33
2018-03-07T18:38:15.090Z,3.27
2018-03-07T18:40:44.110Z,3.47
2018-03-07T18:43:12.368Z,4.00
2018-03-07T18:45:41.369Z,3.73
2018-03-07T18:48:10.439Z,4.33
2018-03-07T18:50:38.720Z,4.77
2018-03-07T18:53:06.953Z,4.70
2018-03-07T18:55:35.296Z,4.33
2018-03-07T18:58:03.637Z,4.70
2018-03-07T19:00:31.906Z,4.03
2018-03-07T19:03:00.143Z,4.23
2018-03-07T19:05:29.162Z,4.50
2018-03-07T19:07:57.437Z,5.17
2018-03-07T19:10:33.999Z,4.97
2018-03-07T19:13:03.131Z,6.10
2018-03-07T19:15:31.445Z,5.43
2018-03-07T19:17:59.705Z,5.10
2018-03-07T19:20:27.962Z,4.80
2018-03-07T19:22:56.201Z,5.07
2018-03-07T19:25:24.450Z,5.60
2018-03-07T19:27:52.685Z,4.53
2018-03-07T19:30:21.768Z,5.37
2018-03-07T19:32:49.981Z,4.60
2018-03-07T19:35:19.012Z,4.50
2018-03-07T19:37:47.250Z,3.73
2018-03-07T19:40:16.264Z,3.83
2018-03-07T19:42:44.502Z,4.53
2018-03-07T19:45:12.753Z,4.20
2018-03-07T19:47:41.035Z,4.00
2018-03-07T19:50:09.278Z,4.20
2018-03-07T19:52:37.523Z,3.40
2018-03-07T19:55:07.272Z,4.13
2018-03-07T19:57:35.515Z,4.43
2018-03-07T20:00:09.778Z,4.07
2018-03-07T20:02:37.999Z,3.60
2018-03-07T20:05:06.231Z,3.83
2018-03-07T20:07:34.503Z,4.43
2018-03-07T20:10:02.737Z,4.47
2018-03-07T20:12:31.056Z,4.10
2018-03-07T20:15:00.088Z,3.60
2018-03-07T20:17:28.336Z,3.43
2018-03-07T20:19:57.328Z,4.93
2018-03-07T20:22:26.363Z,3.97
2018-03-07T20:24:54.598Z,4.37
2018-03-07T20:27:23.666Z,3.80
2018-03-07T20:29:51.940Z,3.10
2018-03-07T20:32:20.186Z,3.90
2018-03-07T20:34:48.450Z,3.37
2018-03-07T20:37:17.461Z,3.50
2018-03-07T20:39:45.698Z,4.00
2018-03-07T20:42:14.138Z,3.57
2018-03-07T20:44:42.377Z,3.70
2018-03-07T20:47:11.420Z,3.80
2018-03-07T20:49:39.674Z,3.20
2018-03-07T20:52:08.681Z,3.40
2018-03-07T20:54:37.060Z,2.97
2018-03-07T20:57:06.113Z,3.70
2018-03-07T20:59:34.350Z,3.60
2018-03-07T21:02:02.667Z,3.43
2018-03-07T21:04:30.933Z,3.70
2018-03-07T21:06:59.186Z,3.90
2018-03-07T21:09:27.421Z,3.93
2018-03-07T21:11:56.434Z,4.10
2018-03-07T21:14:25.436Z,3.90
2018-03-07T21:16:53.738Z,3.87
2018-03-07T21:19:21.969Z,3.60
2018-03-07T21:21:50.427Z,4.27
2018-03-07T21:24:18.662Z,4.00
2018-03-07T21:26:46.927Z,3.67
2018-03-07T21:29:15.921Z,4.30
2018-03-07T21:31:44.940Z,4.17
2018-03-07T21:34:13.175Z,3.90
2018-03-07T21:36:41.426Z,3.60
2018-03-07T21:39:09.662Z,4.00
2018-03-07T21:41:37.935Z,3.70
2018-03-07T21:44:06.941Z,3.67
2018-03-07T21:46:35.253Z,3.77
2018-03-07T21:49:03.510Z,4.47
2018-03-07T21:51:31.790Z,3.77
2018-03-07T21:54:00.032Z,4.13
2018-03-07T21:56:28.281Z,3.60
2018-03-07T21:58:56.542Z,3.97
2018-03-07T22:01:25.008Z,3.93
2018-03-07T22:03:53.331Z,4.23
2018-03-07T22:06:21.876Z,4.57
2018-03-07T22:08:50.520Z,4.30
2018-03-07T22:11:18.785Z,5.33
2018-03-07T22:13:47.021Z,4.07
2018-03-07T22:16:15.870Z,4.73
2018-03-07T22:18:44.124Z,4.57
2018-03-07T22:21:12.361Z,5.00
2018-03-07T22:23:41.635Z,5.03
2018-03-07T22:26:09.895Z,5.73
2018-03-07T22:28:38.334Z,5.37
2018-03-07T22:31:06.901Z,4.63
2018-03-07T22:33:35.974Z,6.13
2018-03-07T22:36:04.209Z,6.70
2018-03-07T22:38:32.473Z,5.50
2018-03-07T22:41:01.552Z,6.07
2018-03-07T22:43:29.826Z,6.40
2018-03-07T22:45:58.372Z,6.47
2018-03-07T22:48:26.662Z,6.93
2018-03-07T22:50:54.917Z,7.13
2018-03-07T22:53:23.960Z,6.60
2018-03-07T22:55:52.198Z,7.63
2018-03-07T22:58:20.455Z,7.80
2018-03-07T23:00:49.947Z,7.77
2018-03-07T23:03:19.150Z,9.83
2018-03-07T23:05:47.817Z,7.60
2018-03-07T23:08:16.330Z,7.50
2018-03-07T23:10:45.353Z,8.20
2018-03-07T23:13:14.374Z,8.90
2018-03-07T23:15:42.654Z,8.30
2018-03-07T23:18:11.645Z,8.00
2018-03-07T23:20:39.889Z,8.63
2018-03-07T23:23:08.160Z,8.33
2018-03-07T23:25:37.918Z,9.13
2018-03-07T23:28:06.173Z,8.73
2018-03-07T23:30:35.199Z,8.60
2018-03-07T23:33:03.502Z,8.90
2018-03-07T23:35:31.789Z,7.63
2018-03-07T23:38:00.044Z,9.20
2018-03-07T23:40:28.280Z,9.20
2018-03-07T23:42:56.537Z,8.67
2018-03-07T23:45:24.797Z,9.40
2018-03-07T23:47:53.074Z,8.67
2018-03-07T23:50:21.315Z,8.17
2018-03-07T23:52:50.335Z,9.33
2018-03-07T23:55:18.588Z,10.00
2018-03-07T23:57:47.654Z,9.47
